Time;durP1;ratioP1;P1;durP2;ratioP2;P2;SDS_P1;SDS_P2;PMS_P1;PMS_P2;Temp;Humidity;BMP_temperature;BMP_pressure;BME280_temperature;BME280_humidity;BME280_pressure;Samples;Min_cycle;Max_cycle;Signal;HPM_P1;HPM_P2
2020/12/23 00:01:23;;;;;;;6.70;3.23;;;8.20;99.90;;;;;;5027286;28;20647;-71
2020/12/23 00:04:07;;;;;;;3.60;2.80;;;8.20;99.90;;;;;;5028525;28;20619;-71
2020/12/23 00:06:54;;;;;;;7.47;2.57;;;8.10;99.90;;;;;;5017685;28;20650;-71
2020/12/23 00:09:38;;;;;;;5.63;2.77;;;8.10;99.90;;;;;;5033456;28;20602;-71
2020/12/23 00:12:22;;;;;;;5.97;2.70;;;8.10;99.90;;;;;;5018151;28;21011;-71
2020/12/23 00:15:08;;;;;;;4.60;2.30;;;8.00;99.90;;;;;;5026936;28;20594;-71
2020/12/23 00:17:52;;;;;;;7.70;2.83;;;8.00;99.90;;;;;;5035778;28;20603;-71
2020/12/23 00:20:36;;;;;;;5.90;2.80;;;7.90;99.90;;;;;;5034628;28;20579;-71
2020/12/23 00:23:21;;;;;;;5.23;2.97;;;7.90;99.90;;;;;;5025929;28;20658;-71
2020/12/23 00:26:11;;;;;;;6.03;2.50;;;7.90;99.90;;;;;;5029605;28;20630;-71
2020/12/23 00:28:56;;;;;;;3.93;2.30;;;7.80;99.90;;;;;;5029905;28;20577;-71
2020/12/23 00:31:40;;;;;;;5.20;2.40;;;7.80;99.90;;;;;;5022634;28;20705;-71
2020/12/23 00:34:25;;;;;;;6.33;2.43;;;7.70;99.90;;;;;;5022903;28;20594;-71
2020/12/23 00:37:09;;;;;;;8.63;2.77;;;7.70;99.90;;;;;;5035767;28;20661;-71
2020/12/23 00:39:54;;;;;;;6.80;2.70;;;7.60;99.90;;;;;;5024820;28;20579;-71
2020/12/23 00:42:38;;;;;;;5.10;2.33;;;7.50;99.90;;;;;;5013045;28;20658;-71
2020/12/23 00:45:23;;;;;;;6.03;2.37;;;7.50;99.90;;;;;;5032205;28;20725;-71
2020/12/23 00:48:07;;;;;;;5.40;2.90;;;7.50;99.90;;;;;;5008368;28;20594;-72
2020/12/23 00:50:51;;;;;;;6.43;2.40;;;7.40;99.90;;;;;;5026062;28;20981;-72
2020/12/23 00:53:37;;;;;;;6.93;2.47;;;7.40;99.90;;;;;;5024555;28;20602;-71
2020/12/23 00:56:21;;;;;;;4.20;2.10;;;7.40;99.90;;;;;;5030458;28;20653;-71
2020/12/23 00:59:06;;;;;;;7.47;2.60;;;7.30;99.90;;;;;;5029430;28;20618;-71
2020/12/23 01:01:56;;;;;;;2.83;2.53;;;7.30;99.90;;;;;;5021577;28;20778;-71
2020/12/23 01:04:41;;;;;;;6.90;2.60;;;7.10;99.90;;;;;;5021368;28;21465;-71
2020/12/23 01:07:25;;;;;;;6.30;2.63;;;7.20;99.90;;;;;;5024890;28;20623;-71
2020/12/23 01:10:10;;;;;;;4.53;2.80;;;7.10;99.90;;;;;;5044312;28;20591;-71
2020/12/23 01:12:54;;;;;;;6.77;2.80;;;7.00;99.90;;;;;;5025190;28;20642;-71
2020/12/23 01:15:39;;;;;;;3.40;2.20;;;6.90;99.90;;;;;;5021741;28;20649;-71
2020/12/23 01:18:27;;;;;;;6.10;2.67;;;6.90;99.90;;;;;;5030778;28;21062;-71
2020/12/23 01:21:11;;;;;;;6.30;2.50;;;6.80;99.90;;;;;;5008918;28;20805;-71
2020/12/23 01:23:56;;;;;;;4.77;2.13;;;6.70;99.90;;;;;;5012277;28;20706;-71
2020/12/23 01:26:41;;;;;;;5.57;2.50;;;6.70;99.90;;;;;;5032295;28;20648;-71
2020/12/23 01:29:25;;;;;;;7.47;3.13;;;6.70;99.90;;;;;;5023841;28;21094;-70
2020/12/23 01:32:10;;;;;;;5.77;3.27;;;6.70;99.90;;;;;;5028375;28;20677;-71
2020/12/23 01:34:54;;;;;;;4.67;2.30;;;6.70;99.90;;;;;;5030286;28;20543;-71
2020/12/23 01:37:39;;;;;;;5.43;2.20;;;6.60;99.90;;;;;;5019442;28;20692;-71
2020/12/23 01:40:23;;;;;;;8.30;2.67;;;6.50;99.90;;;;;;5011984;28;20619;-71
2020/12/23 01:43:08;;;;;;;4.20;2.83;;;6.50;99.90;;;;;;5041077;28;20663;-71
2020/12/23 01:45:53;;;;;;;7.17;3.50;;;6.50;99.90;;;;;;5014328;28;21766;-71
2020/12/23 01:48:39;;;;;;;4.47;2.73;;;6.40;99.90;;;;;;5037346;28;20615;-71
2020/12/23 01:51:25;;;;;;;2.67;2.47;;;6.30;99.90;;;;;;5029372;28;20624;-72
2020/12/23 01:54:13;;;;;;;5.27;2.50;;;6.30;99.90;;;;;;5010849;28;20572;-72
2020/12/23 01:56:58;;;;;;;3.63;2.73;;;6.30;99.90;;;;;;5033611;28;20657;-71
2020/12/23 01:59:49;;;;;;;3.93;2.40;;;6.30;99.90;;;;;;5025835;28;21165;-71
2020/12/23 02:02:35;;;;;;;6.33;2.73;;;6.20;99.90;;;;;;5014260;28;20663;-71
2020/12/23 02:05:20;;;;;;;4.97;2.30;;;6.20;99.90;;;;;;5027906;28;20666;-71
2020/12/23 02:08:04;;;;;;;5.10;2.57;;;6.10;99.90;;;;;;5044619;28;20685;-71
2020/12/23 02:10:50;;;;;;;3.20;2.10;;;6.00;99.90;;;;;;5032763;28;20679;-71
2020/12/23 02:13:40;;;;;;;5.00;2.73;;;6.00;99.90;;;;;;5015748;28;20598;-71
2020/12/23 02:16:24;;;;;;;4.30;2.33;;;6.00;99.90;;;;;;5027051;28;20781;-71
2020/12/23 02:19:09;;;;;;;3.93;2.20;;;6.00;99.90;;;;;;5010685;28;20679;-71
2020/12/23 02:21:54;;;;;;;4.90;2.47;;;5.90;99.90;;;;;;5028384;28;20681;-71
2020/12/23 02:24:39;;;;;;;4.17;2.60;;;5.90;99.90;;;;;;5023972;28;20623;-71
2020/12/23 02:27:24;;;;;;;4.67;2.50;;;5.90;99.90;;;;;;5025060;28;20713;-71
2020/12/23 02:30:10;;;;;;;5.03;2.57;;;5.80;99.90;;;;;;5032294;28;20597;-71
2020/12/23 02:32:55;;;;;;;5.70;2.40;;;5.80;99.90;;;;;;5022222;28;21244;-71
2020/12/23 02:35:40;;;;;;;2.60;2.40;;;5.70;99.90;;;;;;5020820;28;20642;-71
2020/12/23 02:38:24;;;;;;;2.77;2.40;;;5.70;99.90;;;;;;5037768;28;20816;-71
2020/12/23 02:41:12;;;;;;;4.93;2.63;;;5.60;99.90;;;;;;5045365;28;20788;-71
2020/12/23 02:43:58;;;;;;;6.70;3.27;;;5.60;99.90;;;;;;5029431;28;20711;-71
2020/12/23 02:46:50;;;;;;;7.63;2.83;;;5.60;99.90;;;;;;5029603;28;20665;-71
2020/12/23 02:49:35;;;;;;;4.00;2.93;;;5.60;99.90;;;;;;5042477;28;20603;-71
2020/12/23 02:52:20;;;;;;;3.53;2.70;;;5.60;99.90;;;;;;5027386;28;20709;-70
2020/12/23 02:55:05;;;;;;;3.47;2.77;;;5.50;99.90;;;;;;5041288;28;20598;-71
2020/12/23 02:57:49;;;;;;;4.97;3.00;;;5.50;99.90;;;;;;5013193;28;20917;-71
2020/12/23 03:00:34;;;;;;;3.33;2.73;;;5.40;99.90;;;;;;5027550;28;20634;-71
2020/12/23 03:03:18;;;;;;;6.17;3.30;;;5.40;99.90;;;;;;5036741;28;20658;-71
2020/12/23 03:06:06;;;;;;;4.10;2.90;;;5.40;99.90;;;;;;5048633;23;20622;-69
2020/12/23 03:08:51;;;;;;;6.27;3.30;;;5.40;99.90;;;;;;5037231;28;20974;-69
2020/12/23 03:11:36;;;;;;;5.20;3.13;;;5.30;99.90;;;;;;5018395;28;20734;-69
2020/12/23 03:14:20;;;;;;;6.20;3.93;;;5.30;99.90;;;;;;5033533;28;20592;-69
2020/12/23 03:17:05;;;;;;;3.90;3.17;;;5.30;99.90;;;;;;5045500;28;20656;-69
2020/12/23 03:19:49;;;;;;;6.03;3.50;;;5.30;99.90;;;;;;5048695;28;20746;-69
2020/12/23 03:22:34;;;;;;;7.23;4.03;;;5.30;99.90;;;;;;5047588;28;20665;-69
2020/12/23 03:25:18;;;;;;;7.33;3.20;;;5.20;99.90;;;;;;5047683;28;20639;-69
2020/12/23 03:28:03;;;;;;;5.23;3.37;;;5.20;99.90;;;;;;5053392;28;21010;-69
2020/12/23 03:30:47;;;;;;;5.40;3.87;;;5.20;99.90;;;;;;5046350;28;20723;-69
2020/12/23 03:33:32;;;;;;;4.43;2.90;;;5.10;99.90;;;;;;5036737;28;20543;-69
2020/12/23 03:36:17;;;;;;;5.30;3.50;;;5.10;99.90;;;;;;5061468;28;20739;-68
2020/12/23 03:39:03;;;;;;;4.67;3.63;;;5.10;99.90;;;;;;5054805;28;20612;-69
2020/12/23 03:41:47;;;;;;;5.57;2.80;;;5.00;99.90;;;;;;5054264;28;21300;-69
2020/12/23 03:44:32;;;;;;;4.40;3.63;;;5.00;99.90;;;;;;5072018;28;20633;-69
2020/12/23 03:47:16;;;;;;;5.60;3.40;;;5.00;99.90;;;;;;5049333;28;20672;-69
2020/12/23 03:50:01;;;;;;;5.10;3.83;;;5.00;99.90;;;;;;5058765;28;21008;-69
2020/12/23 03:52:46;;;;;;;7.50;5.10;;;5.00;99.90;;;;;;5048904;28;20732;-69
2020/12/23 03:55:30;;;;;;;8.30;4.90;;;5.00;99.90;;;;;;5052895;28;21187;-69
2020/12/23 03:58:15;;;;;;;16.87;8.20;;;5.10;99.90;;;;;;5067048;28;20927;-69
2020/12/23 04:00:59;;;;;;;11.40;8.47;;;5.20;99.90;;;;;;5057577;28;20618;-69
2020/12/23 04:03:44;;;;;;;15.37;7.63;;;5.30;99.90;;;;;;5034569;28;20669;-69
2020/12/23 04:06:28;;;;;;;10.37;6.03;;;5.40;99.90;;;;;;5056994;28;20668;-69
2020/12/23 04:09:13;;;;;;;13.23;7.70;;;5.40;99.90;;;;;;5062066;28;21008;-69
2020/12/23 04:11:57;;;;;;;13.67;7.70;;;5.40;99.90;;;;;;5048384;28;20629;-69
2020/12/23 04:14:41;;;;;;;14.40;7.90;;;5.50;99.90;;;;;;5070237;28;21050;-69
2020/12/23 04:17:26;;;;;;;14.83;7.13;;;5.50;99.90;;;;;;5050744;28;21312;-69
2020/12/23 04:20:10;;;;;;;12.90;6.40;;;5.50;99.90;;;;;;5042327;28;20601;-69
2020/12/23 04:22:55;;;;;;;29.30;11.00;;;5.60;99.90;;;;;;5044922;28;20641;-69
2020/12/23 04:25:40;;;;;;;16.53;9.23;;;5.60;99.90;;;;;;5061418;28;20713;-69
2020/12/23 04:28:24;;;;;;;20.57;10.93;;;5.70;99.90;;;;;;5069478;28;21067;-69
2020/12/23 04:31:09;;;;;;;18.57;10.57;;;5.70;99.90;;;;;;5042906;28;20628;-69
2020/12/23 04:33:54;;;;;;;37.07;15.23;;;5.70;99.90;;;;;;5038794;28;20625;-69
2020/12/23 04:36:39;;;;;;;39.17;15.97;;;5.80;99.90;;;;;;5034907;28;20680;-69
2020/12/23 04:39:23;;;;;;;29.33;15.27;;;6.00;99.90;;;;;;5066230;28;20726;-69
2020/12/23 04:42:10;;;;;;;24.70;13.87;;;6.00;99.90;;;;;;5053804;28;20649;-68
2020/12/23 04:44:55;;;;;;;20.90;14.87;;;6.10;99.90;;;;;;5049509;28;21089;-69
2020/12/23 04:47:40;;;;;;;42.47;15.90;;;6.10;99.90;;;;;;5032600;28;20779;-69
2020/12/23 04:50:27;;;;;;;25.70;14.90;;;6.10;99.90;;;;;;5043373;28;20593;-69
2020/12/23 04:53:12;;;;;;;34.17;17.70;;;6.20;99.90;;;;;;5034005;28;20653;-68
2020/12/23 04:55:56;;;;;;;23.43;14.97;;;6.20;99.90;;;;;;5032450;28;20625;-68
2020/12/23 04:58:41;;;;;;;39.67;19.43;;;6.30;99.90;;;;;;5034719;28;20670;-69
2020/12/23 05:01:27;;;;;;;46.83;21.30;;;6.30;99.90;;;;;;5033867;28;20645;-69
2020/12/23 05:04:11;;;;;;;43.10;20.40;;;6.40;99.90;;;;;;5037738;28;20657;-69
2020/12/23 05:07:06;;;;;;;40.20;20.40;;;6.50;99.90;;;;;;5042737;28;21214;-68
2020/12/23 05:09:51;;;;;;;38.00;18.47;;;6.40;99.90;;;;;;5053059;28;20629;-69
2020/12/23 05:12:35;;;;;;;28.37;16.80;;;6.50;99.90;;;;;;5048248;28;20657;-69
2020/12/23 05:15:20;;;;;;;60.17;18.40;;;6.40;99.90;;;;;;5047914;28;20608;-69
2020/12/23 05:18:04;;;;;;;52.70;17.53;;;6.40;99.90;;;;;;5047776;28;20657;-69
2020/12/23 05:20:53;;;;;;;46.67;16.40;;;6.50;99.90;;;;;;5035210;28;20637;-69
2020/12/23 05:23:40;;;;;;;28.83;13.90;;;6.50;99.90;;;;;;5066256;28;20636;-68
2020/12/23 05:26:25;;;;;;;26.03;14.63;;;6.50;99.90;;;;;;5053422;28;20640;-68
2020/12/23 05:29:13;;;;;;;32.27;13.47;;;6.40;99.90;;;;;;5052044;28;21024;-69
2020/12/23 05:31:57;;;;;;;27.03;11.97;;;6.40;99.90;;;;;;5042200;28;20780;-68
2020/12/23 05:34:43;;;;;;;21.83;10.27;;;6.50;99.90;;;;;;5052079;28;20572;-69
2020/12/23 05:37:27;;;;;;;51.00;14.13;;;6.50;99.90;;;;;;5044380;28;20683;-69
2020/12/23 05:40:12;;;;;;;63.63;18.00;;;6.50;99.90;;;;;;5052898;28;20705;-69
2020/12/23 05:42:57;;;;;;;31.13;15.60;;;6.60;99.90;;;;;;5037737;28;20672;-69
2020/12/23 05:45:42;;;;;;;34.43;16.97;;;6.60;99.90;;;;;;5061457;28;20707;-68
2020/12/23 05:48:28;;;;;;;28.90;17.13;;;6.60;99.90;;;;;;5055954;28;20620;-69
2020/12/23 05:51:13;;;;;;;42.50;16.40;;;6.50;99.90;;;;;;5065516;28;20660;-69
2020/12/23 05:53:58;;;;;;;30.53;13.70;;;6.50;99.90;;;;;;5043557;28;20589;-68
2020/12/23 05:56:43;;;;;;;29.33;12.30;;;6.50;99.90;;;;;;5041850;28;20890;-69
2020/12/23 05:59:27;;;;;;;24.33;12.80;;;6.50;99.90;;;;;;5047270;28;20600;-69
2020/12/23 06:02:18;;;;;;;30.73;12.70;;;6.50;99.90;;;;;;5039516;28;20644;-69
2020/12/23 06:05:03;;;;;;;23.10;11.60;;;6.50;99.90;;;;;;5051367;28;21085;-69
2020/12/23 06:07:50;;;;;;;42.40;13.30;;;6.40;99.90;;;;;;5042578;28;20657;-69
2020/12/23 06:10:36;;;;;;;30.80;13.60;;;6.40;99.90;;;;;;5051571;28;20943;-69
2020/12/23 06:13:48;;;;;;;54.67;13.17;;;6.40;99.90;;;;;;5059265;28;20671;-69
2020/12/23 06:16:38;;;;;;;39.67;12.00;;;6.30;99.90;;;;;;5037082;28;20676;-69
2020/12/23 06:19:25;;;;;;;38.27;13.70;;;6.30;99.90;;;;;;5054582;28;20569;-69
2020/12/23 06:22:10;;;;;;;62.90;13.63;;;6.30;99.90;;;;;;5050217;28;20673;-69
2020/12/23 06:25:00;;;;;;;27.97;11.53;;;6.20;99.90;;;;;;5055193;28;20613;-69
2020/12/23 06:27:51;;;;;;;40.50;13.63;;;6.20;99.90;;;;;;5055089;28;21234;-69
2020/12/23 06:30:36;;;;;;;45.77;13.40;;;6.10;99.90;;;;;;5035985;28;20993;-69
2020/12/23 06:33:21;;;;;;;39.43;12.40;;;6.10;99.90;;;;;;5053172;28;20652;-68
2020/12/23 06:36:12;;;;;;;27.00;11.50;;;6.10;99.90;;;;;;5045977;28;20824;-68
2020/12/23 06:39:18;;;;;;;35.53;13.17;;;6.10;99.90;;;;;;5042414;28;20647;-69
2020/12/23 06:42:03;;;;;;;54.63;13.03;;;6.00;99.90;;;;;;5054124;28;20875;-69
2020/12/23 06:45:00;;;;;;;35.47;11.83;;;6.00;99.90;;;;;;5045913;28;20684;-69
2020/12/23 06:47:46;;;;;;;16.63;11.53;;;6.00;99.90;;;;;;5043828;28;20636;-69
2020/12/23 06:50:31;;;;;;;24.87;11.00;;;6.00;99.90;;;;;;5051764;28;20973;-69
2020/12/23 06:53:36;;;;;;;19.10;12.00;;;6.00;99.90;;;;;;5033908;28;20634;-69
2020/12/23 06:56:43;;;;;;;27.47;11.57;;;6.00;99.90;;;;;;5049116;28;20748;-68
2020/12/23 06:59:46;;;;;;;31.80;12.20;;;6.00;99.90;;;;;;5047266;28;20588;-68
2020/12/23 07:02:40;;;;;;;18.07;10.73;;;6.00;99.90;;;;;;5032107;28;20721;-69
2020/12/23 07:05:24;;;;;;;20.60;11.40;;;5.90;99.90;;;;;;5018269;28;20656;-68
2020/12/23 07:08:13;;;;;;;21.90;12.10;;;5.90;99.90;;;;;;5040032;28;20723;-69
2020/12/23 07:11:01;;;;;;;18.10;10.93;;;5.90;99.90;;;;;;5046460;28;20609;-68
2020/12/23 07:13:45;;;;;;;139.20;16.77;;;5.90;99.90;;;;;;5056261;28;20593;-68
2020/12/23 07:16:39;;;;;;;36.07;12.00;;;5.90;99.90;;;;;;5054637;28;21066;-68
2020/12/23 07:19:25;;;;;;;26.60;9.83;;;5.80;99.90;;;;;;5049886;28;20733;-68
2020/12/23 07:22:11;;;;;;;15.67;10.87;;;5.80;99.90;;;;;;5045379;28;20829;-68
2020/12/23 07:25:00;;;;;;;21.40;11.90;;;5.80;99.90;;;;;;5055233;28;21276;-69
2020/12/23 07:27:46;;;;;;;43.20;10.70;;;5.70;99.90;;;;;;5050093;28;20973;-68
2020/12/23 07:30:35;;;;;;;16.03;9.87;;;5.70;99.90;;;;;;5047174;28;20663;-69
2020/12/23 07:33:22;;;;;;;52.90;11.17;;;5.60;99.90;;;;;;5060436;28;20772;-68
2020/12/23 07:36:07;;;;;;;20.40;10.77;;;5.60;99.90;;;;;;5047202;28;21209;-68
2020/12/23 07:38:53;;;;;;;20.30;9.63;;;5.60;99.90;;;;;;5044140;28;20609;-69
2020/12/23 07:41:38;;;;;;;28.67;11.10;;;5.60;99.90;;;;;;5033744;28;20785;-68
2020/12/23 07:44:24;;;;;;;21.83;10.13;;;5.60;99.90;;;;;;5040652;28;20685;-68
2020/12/23 07:47:08;;;;;;;18.90;10.13;;;5.50;99.90;;;;;;5048424;28;20644;-68
2020/12/23 07:50:05;;;;;;;15.60;9.80;;;5.50;99.90;;;;;;5048240;28;21033;-68
2020/12/23 07:52:50;;;;;;;25.17;10.40;;;5.50;99.90;;;;;;5042239;28;20644;-68
2020/12/23 07:55:34;;;;;;;22.70;10.47;;;5.50;99.90;;;;;;5050315;28;20569;-69
2020/12/23 07:58:19;;;;;;;29.90;10.70;;;5.50;99.90;;;;;;5037507;28;21156;-68
2020/12/23 08:01:08;;;;;;;23.30;10.17;;;5.50;99.90;;;;;;5041836;28;20632;-69
2020/12/23 08:03:52;;;;;;;15.13;10.00;;;5.50;99.90;;;;;;5043613;28;20648;-69
2020/12/23 08:06:37;;;;;;;23.50;11.10;;;5.40;99.90;;;;;;5037367;28;20881;-68
2020/12/23 08:09:27;;;;;;;15.83;9.87;;;5.40;99.90;;;;;;5045538;28;20715;-69
2020/12/23 08:12:17;;;;;;;15.50;10.70;;;5.50;99.90;;;;;;5039198;28;20707;-69
2020/12/23 08:15:14;;;;;;;15.97;10.97;;;5.50;99.90;;;;;;5052371;28;21183;-69
2020/12/23 08:18:03;;;;;;;18.30;11.57;;;5.60;99.90;;;;;;5044959;28;20672;-69
2020/12/23 08:20:47;;;;;;;20.27;12.53;;;5.50;99.90;;;;;;5040023;28;21225;-69
2020/12/23 08:23:32;;;;;;;16.67;12.60;;;5.60;99.90;;;;;;5028412;28;20593;-69
2020/12/23 08:26:17;;;;;;;21.63;13.63;;;5.70;99.90;;;;;;5044346;28;20655;-69
2020/12/23 08:29:02;;;;;;;22.77;12.60;;;5.70;99.90;;;;;;5039956;28;20605;-69
2020/12/23 08:31:54;;;;;;;21.60;12.67;;;5.70;99.90;;;;;;5040503;28;20708;-69
2020/12/23 08:34:41;;;;;;;26.27;14.23;;;5.70;99.90;;;;;;5060506;28;21017;-69
2020/12/23 08:37:25;;;;;;;20.97;12.33;;;5.80;99.90;;;;;;5061863;28;20795;-69
2020/12/23 08:40:14;;;;;;;18.57;12.00;;;5.80;99.90;;;;;;5064334;28;20658;-69
2020/12/23 08:43:00;;;;;;;21.03;13.20;;;5.80;99.90;;;;;;5045082;28;20636;-69
2020/12/23 08:45:45;;;;;;;28.97;12.00;;;5.80;99.90;;;;;;5044352;28;20616;-69
2020/12/23 08:48:30;;;;;;;23.20;14.30;;;5.80;99.90;;;;;;5049329;28;22221;-69
2020/12/23 08:51:18;;;;;;;24.50;13.53;;;5.80;99.90;;;;;;5041364;28;21293;-69
2020/12/23 08:54:14;;;;;;;41.53;14.93;;;5.80;99.90;;;;;;5051108;28;20581;-69
2020/12/23 08:56:59;;;;;;;27.13;14.50;;;5.80;99.90;;;;;;5043097;28;21080;-69
2020/12/23 08:59:43;;;;;;;27.60;13.27;;;5.70;99.90;;;;;;5048544;28;21106;-69
2020/12/23 09:02:36;;;;;;;25.50;13.10;;;5.70;99.90;;;;;;5043675;28;21257;-69
2020/12/23 09:05:23;;;;;;;27.73;14.30;;;5.70;99.90;;;;;;5045360;28;20927;-69
2020/12/23 09:08:09;;;;;;;25.60;11.23;;;5.70;99.90;;;;;;5035717;28;20661;-68
2020/12/23 09:10:56;;;;;;;22.40;11.27;;;5.80;99.90;;;;;;5048560;28;20696;-68
2020/12/23 09:13:40;;;;;;;14.83;10.53;;;5.70;99.90;;;;;;5044586;28;21008;-68
2020/12/23 09:16:25;;;;;;;18.03;9.90;;;5.60;99.90;;;;;;5031742;28;20748;-69
2020/12/23 09:19:09;;;;;;;13.37;9.73;;;5.60;99.90;;;;;;5042509;28;20676;-69
2020/12/23 09:21:55;;;;;;;18.07;9.87;;;5.60;99.90;;;;;;5042682;28;20637;-70
2020/12/23 09:24:39;;;;;;;34.80;11.80;;;5.70;99.90;;;;;;5043235;28;20636;-68
2020/12/23 09:27:25;;;;;;;16.20;10.50;;;5.70;99.90;;;;;;5049141;28;20669;-68
2020/12/23 09:30:09;;;;;;;21.00;10.43;;;5.70;99.90;;;;;;5048524;28;20632;-68
2020/12/23 09:32:54;;;;;;;16.80;9.93;;;5.70;99.90;;;;;;5043923;28;21182;-69
2020/12/23 09:35:40;;;;;;;17.90;10.70;;;5.60;99.90;;;;;;5048095;28;20615;-68
2020/12/23 09:38:34;;;;;;;21.57;10.10;;;5.60;99.90;;;;;;5040549;28;20632;-68
2020/12/23 09:41:18;;;;;;;17.60;10.70;;;5.70;99.90;;;;;;5053407;28;20949;-67
2020/12/23 09:44:03;;;;;;;13.03;9.23;;;5.70;99.90;;;;;;5045709;28;20695;-68
2020/12/23 09:46:49;;;;;;;24.30;11.50;;;5.70;99.90;;;;;;5043677;28;21103;-68
2020/12/23 09:49:34;;;;;;;20.17;11.13;;;5.70;99.90;;;;;;5045559;28;20724;-68
2020/12/23 09:52:18;;;;;;;13.53;9.40;;;5.70;99.90;;;;;;5047470;28;20633;-68
2020/12/23 09:55:05;;;;;;;18.97;9.77;;;5.70;99.90;;;;;;5055404;28;20755;-68
2020/12/23 09:57:50;;;;;;;12.90;9.67;;;5.80;99.90;;;;;;5042705;28;20639;-68
2020/12/23 10:00:34;;;;;;;19.73;8.90;;;5.90;99.90;;;;;;5050876;28;20620;-67
2020/12/23 10:03:19;;;;;;;15.70;10.00;;;5.90;99.90;;;;;;5054063;28;21220;-67
2020/12/23 10:06:04;;;;;;;15.60;9.67;;;5.90;99.90;;;;;;5045282;28;20973;-68
2020/12/23 10:08:48;;;;;;;13.73;9.17;;;5.90;99.90;;;;;;5053724;28;20724;-68
2020/12/23 10:11:33;;;;;;;13.20;9.63;;;6.00;99.90;;;;;;5048091;28;20628;-71
2020/12/23 10:14:18;;;;;;;12.70;9.27;;;6.00;99.90;;;;;;5052515;28;20704;-73
2020/12/23 10:17:05;;;;;;;11.00;8.00;;;6.10;99.90;;;;;;5050075;28;21190;-69
2020/12/23 10:19:49;;;;;;;14.00;8.23;;;6.10;99.90;;;;;;5048356;28;20601;-68
2020/12/23 10:22:34;;;;;;;14.33;8.67;;;6.20;99.90;;;;;;5050910;28;20637;-67
2020/12/23 10:25:19;;;;;;;13.40;8.97;;;6.20;99.90;;;;;;5054401;28;20628;-68
2020/12/23 10:28:03;;;;;;;12.30;9.20;;;6.20;99.90;;;;;;5051619;28;20648;-68
2020/12/23 10:30:50;;;;;;;14.20;9.50;;;6.20;99.90;;;;;;5045563;28;20931;-68
2020/12/23 10:33:36;;;;;;;14.07;9.40;;;6.30;99.90;;;;;;5054897;28;20608;-68
2020/12/23 10:36:20;;;;;;;13.80;9.30;;;6.40;99.90;;;;;;5041792;28;20654;-67
2020/12/23 10:39:06;;;;;;;12.27;9.00;;;6.40;99.90;;;;;;5056477;28;21186;-68
2020/12/23 10:41:55;;;;;;;14.47;10.20;;;6.50;99.90;;;;;;5048135;28;20645;-69
2020/12/23 10:44:40;;;;;;;13.30;9.60;;;6.50;99.90;;;;;;5056357;28;21210;-68
2020/12/23 10:47:24;;;;;;;13.53;9.23;;;6.50;99.90;;;;;;5040743;28;20657;-67
2020/12/23 10:50:10;;;;;;;10.77;8.50;;;6.60;99.90;;;;;;5037583;28;20752;-69
2020/12/23 10:52:55;;;;;;;11.20;8.40;;;6.60;99.90;;;;;;5047244;28;20636;-68
2020/12/23 10:55:40;;;;;;;11.43;8.67;;;6.70;99.90;;;;;;5042722;28;20636;-68
2020/12/23 10:58:24;;;;;;;12.87;8.87;;;6.80;99.90;;;;;;5041793;28;20619;-68
2020/12/23 11:01:09;;;;;;;11.20;8.20;;;6.80;99.90;;;;;;5043679;28;20728;-68
2020/12/23 11:03:53;;;;;;;13.03;9.10;;;6.80;99.90;;;;;;5059477;28;20611;-69
2020/12/23 11:06:38;;;;;;;15.33;9.40;;;6.80;99.90;;;;;;5049253;28;21269;-69
2020/12/23 11:09:23;;;;;;;12.50;8.33;;;6.90;99.90;;;;;;5048029;28;20585;-69
2020/12/23 11:12:08;;;;;;;10.60;8.00;;;6.90;99.90;;;;;;5038052;28;20636;-71
2020/12/23 11:14:53;;;;;;;12.07;9.00;;;7.00;99.90;;;;;;5043821;28;20612;-68
2020/12/23 11:17:37;;;;;;;11.97;8.77;;;7.00;99.90;;;;;;5036614;28;20786;-69
2020/12/23 11:20:22;;;;;;;10.60;8.13;;;7.00;99.90;;;;;;5060871;28;20602;-69
2020/12/23 11:23:06;;;;;;;12.20;9.20;;;7.10;99.90;;;;;;5054649;28;20695;-69
2020/12/23 11:25:52;;;;;;;11.40;8.80;;;7.10;99.90;;;;;;5045403;28;20799;-69
2020/12/23 11:28:37;;;;;;;10.17;7.97;;;7.10;99.90;;;;;;5053272;28;20824;-69
2020/12/23 11:31:21;;;;;;;10.33;7.90;;;7.10;99.90;;;;;;5054276;28;21159;-69
2020/12/23 11:34:06;;;;;;;11.67;8.20;;;7.20;99.90;;;;;;5057070;28;20631;-69
2020/12/23 11:36:50;;;;;;;10.03;7.17;;;7.20;99.90;;;;;;5040385;28;20644;-69
2020/12/23 11:39:34;;;;;;;10.80;8.30;;;7.20;99.90;;;;;;5054208;28;20581;-69
2020/12/23 11:42:19;;;;;;;9.57;8.10;;;7.20;99.90;;;;;;5047044;28;20624;-69
2020/12/23 11:45:03;;;;;;;11.00;8.03;;;7.30;99.90;;;;;;5054596;28;20821;-69
2020/12/23 11:47:48;;;;;;;10.20;7.70;;;7.30;99.90;;;;;;5073167;28;20648;-69
2020/12/23 11:50:32;;;;;;;10.97;7.27;;;7.30;99.90;;;;;;5063234;28;20625;-70
2020/12/23 11:53:17;;;;;;;9.67;8.00;;;7.30;99.90;;;;;;5057098;28;21195;-69
2020/12/23 11:56:02;;;;;;;10.93;7.40;;;7.30;99.90;;;;;;5044410;28;20647;-69
2020/12/23 11:58:47;;;;;;;11.97;8.13;;;7.40;99.90;;;;;;5044952;28;20589;-69
2020/12/23 12:01:31;;;;;;;11.60;8.57;;;7.40;99.90;;;;;;5054008;28;20649;-68
2020/12/23 12:04:15;;;;;;;11.57;8.67;;;7.40;99.90;;;;;;5042551;28;21016;-69
2020/12/23 12:07:00;;;;;;;12.10;9.20;;;7.40;99.90;;;;;;5044541;28;20776;-69
2020/12/23 12:09:44;;;;;;;12.70;9.77;;;7.50;99.90;;;;;;5055668;28;20628;-69
2020/12/23 12:12:29;;;;;;;11.40;8.43;;;7.50;99.90;;;;;;5036280;28;20648;-69
2020/12/23 12:15:13;;;;;;;10.40;8.10;;;7.50;99.90;;;;;;5045016;28;21142;-69
2020/12/23 12:17:58;;;;;;;12.23;8.17;;;7.50;99.90;;;;;;5056831;28;23130;-72
2020/12/23 12:20:43;;;;;;;12.30;9.23;;;7.50;99.90;;;;;;5058882;28;20620;-69
2020/12/23 12:23:27;;;;;;;12.60;8.80;;;7.50;99.90;;;;;;5058455;28;20663;-69
2020/12/23 12:26:11;;;;;;;10.27;8.63;;;7.60;99.90;;;;;;5056301;28;20672;-69
2020/12/23 12:28:56;;;;;;;11.40;8.17;;;7.60;99.90;;;;;;5047679;28;20787;-70
2020/12/23 12:31:40;;;;;;;12.67;9.50;;;7.60;99.90;;;;;;5039189;28;20751;-69
2020/12/23 12:34:27;;;;;;;13.97;10.57;;;7.60;99.90;;;;;;5036775;28;21235;-69
2020/12/23 12:37:12;;;;;;;13.73;11.07;;;7.60;99.90;;;;;;5039369;28;20661;-68
2020/12/23 12:39:56;;;;;;;13.77;10.63;;;7.60;99.90;;;;;;5045429;28;20620;-69
2020/12/23 12:42:41;;;;;;;13.10;10.20;;;7.70;99.90;;;;;;5011519;28;22063;-69
2020/12/23 12:45:26;;;;;;;19.10;10.37;;;7.60;99.90;;;;;;5037774;28;20656;-70
2020/12/23 12:48:10;;;;;;;13.30;9.30;;;7.70;99.90;;;;;;5040253;28;21111;-69
2020/12/23 12:50:55;;;;;;;12.20;8.90;;;7.70;99.90;;;;;;5037417;28;21288;-68
2020/12/23 12:53:39;;;;;;;9.20;8.30;;;7.70;99.90;;;;;;5041228;28;20621;-70
2020/12/23 12:56:28;;;;;;;10.00;7.77;;;7.60;99.90;;;;;;5054728;28;20715;-68
2020/12/23 12:59:13;;;;;;;10.37;7.13;;;7.70;99.90;;;;;;5052065;28;20602;-68
2020/12/23 13:01:57;;;;;;;7.90;6.33;;;7.70;99.90;;;;;;5035078;28;20658;-68
2020/12/23 13:04:42;;;;;;;8.03;6.90;;;7.70;99.90;;;;;;5035502;28;20625;-68
2020/12/23 13:07:27;;;;;;;9.50;7.13;;;7.70;99.90;;;;;;5041346;28;20680;-69
2020/12/23 13:10:13;;;;;;;8.70;6.63;;;7.70;99.90;;;;;;5032031;28;20609;-73
2020/12/23 13:12:58;;;;;;;7.20;6.40;;;7.70;99.90;;;;;;5032905;28;20694;-73
2020/12/23 13:15:42;;;;;;;11.30;7.13;;;7.70;99.90;;;;;;5033626;28;20640;-72
2020/12/23 13:18:26;;;;;;;11.33;6.83;;;7.70;99.90;;;;;;5045833;28;20620;-72
2020/12/23 13:21:12;;;;;;;8.10;6.77;;;7.80;99.90;;;;;;5031240;28;21441;-72
2020/12/23 13:23:56;;;;;;;10.53;7.30;;;7.80;99.90;;;;;;5035477;28;20946;-73
2020/12/23 13:26:46;;;;;;;7.50;6.70;;;7.80;99.90;;;;;;5047490;28;20680;-72
2020/12/23 13:29:31;;;;;;;8.47;6.83;;;7.80;99.90;;;;;;5044219;28;21974;-72
2020/12/23 13:32:15;;;;;;;10.60;7.50;;;7.80;99.90;;;;;;5031550;28;20641;-72
2020/12/23 13:35:00;;;;;;;9.00;8.10;;;7.80;99.90;;;;;;5048294;28;20608;-72
2020/12/23 13:37:45;;;;;;;8.70;7.40;;;7.80;99.90;;;;;;5033037;28;20655;-72
2020/12/23 13:40:30;;;;;;;9.77;7.97;;;7.80;99.90;;;;;;5026680;28;20632;-73
2020/12/23 13:43:14;;;;;;;10.27;8.27;;;7.80;99.90;;;;;;5045966;28;20648;-68
2020/12/23 13:45:59;;;;;;;9.07;7.60;;;7.90;99.90;;;;;;5033166;28;20671;-72
2020/12/23 13:48:43;;;;;;;9.40;7.00;;;7.90;99.90;;;;;;5039852;28;20655;-72
2020/12/23 13:51:28;;;;;;;9.10;7.30;;;7.80;99.90;;;;;;5032431;28;20659;-71
2020/12/23 13:54:12;;;;;;;9.20;7.03;;;7.80;99.90;;;;;;5044075;28;20675;-69
2020/12/23 13:56:58;;;;;;;8.80;7.80;;;7.90;99.90;;;;;;5051966;28;21486;-71
2020/12/23 13:59:42;;;;;;;9.20;6.97;;;7.90;99.90;;;;;;5034238;28;20593;-71
2020/12/23 14:02:27;;;;;;;8.40;7.17;;;7.80;99.90;;;;;;5029205;28;20636;-71
2020/12/23 14:05:11;;;;;;;10.03;7.80;;;7.80;99.90;;;;;;5026120;28;20652;-72
2020/12/23 14:07:56;;;;;;;6.93;6.23;;;7.80;99.90;;;;;;5029168;28;20672;-72
2020/12/23 14:10:41;;;;;;;8.27;6.90;;;7.80;99.90;;;;;;5035796;28;21163;-66
2020/12/23 14:13:25;;;;;;;8.47;6.63;;;7.80;99.90;;;;;;5047325;28;20589;-70
2020/12/23 14:16:10;;;;;;;9.40;7.30;;;7.80;99.90;;;;;;5042065;28;20774;-69
2020/12/23 14:18:54;;;;;;;9.40;7.03;;;7.80;99.90;;;;;;5032798;28;20698;-70
2020/12/23 14:21:39;;;;;;;7.50;6.37;;;7.80;99.90;;;;;;5048460;28;20779;-70
2020/12/23 14:24:23;;;;;;;7.53;6.70;;;7.80;99.90;;;;;;5041176;28;20682;-71